Аэропорт: Уральск. Уральск

ICAO: UARR

METAR:
2019-07-23 18:30:00
UARR 231830Z 35002MPS CAVOK 18/11 Q1015 R04/CLRD70 NOSIG RMK QFE757/1010
METAR:
2019-07-23 17:01:00
TAF UARR 231701Z 2318/2403 VRB02MPS CAVOK TEMPO 2318/2324 35005MPS